Accueil
METAR-TAF:

METAR-TAF

Aéroports :

Mount Washington Regional Airport

Whitefield, New Hampshire, États-Unis

latitude: 44-21-58N, longitude: 071-33-09W, altitude: 327 m

Observation

Le bulletin a été fait il y a 31 minutes, à 12:52 UTC
Vent 4 kt de nord-ouest
Température 8°C
Humidité 61%
Pression 1021 hPa
Visibilité: 16.1 km
Quelques nuages à une hauteur de 2900 ft

METAR: KHIE 011252Z AUTO 32004KT 10SM FEW029 08/01 A3015 RMK AO2 SLP219 T00830011

Heure: 09:23 (13:23 UTC)

Prévision

Le bulletin a été fait il y a 2 heures et 3 minutes, à 11:20 UTC
Prévision valable du 01 à 12 UTC au 02 à 12 UTC
Vent 3 kt de ouest/nord-ouest
Visibilité: 10 km
Quelques nuages à une hauteur de 2500 ft
Nuages fragmentés à une hauteur de 6000 ft
A partir de 01 à 1300 UTC
Vent 6 kt de ouest/nord-ouest
Visibilité: 10 km
Nuages fragmentés à une hauteur de 8000 ft

TAF: KHIE 011120Z 0112/0212 29003KT P6SM FEW025 BKN060 FM011300 29006KT P6SM BKN080

Observations et prévisions météorologiques de plus de 4000 aéroports (messages METAR et TAF).

Les stations disponibles sont représentées par des disques jaunes et rouges sur la carte.

Passer la souris dessus pour voir le nom de la station.

Cliquer dessus pour voir les observations et prévisions météorologiques.

Pour changer de carte: cliquez sur les boutons verts avec une croix noire pour zoomer, sur le bouton vert avec un tiret pour effectuer un zoom arrière, ou sur les flèches vertes pour les cartes adjacentes.


METAR-TAF: